Ringo, Kansas
Current Conditions -  °F | °C
As of 6:35 AM on Thursday 29 Jan 2015 (Local Time) from KPTS Reporting Station
Overcast Overcast  
Wind Chill: 43°   Ceiling: 2600
Heat Index: 48°   Visibility: 10mi
Dew Point: 38°   Wind: 15mph
Humidity: 68%   Direction: 350°N
Pressure: 30.14"   Gusts: 26mph
Location:  37.5057°N, 94.9338°W
Report Text: KPTS 291235Z AUTO 35013G23KT 10SM OVC026 09/04 A3014 RMK AO2 T00910035
Loading
Personal Weather Stations






























Interactive Weather Map New forecast layout! Learn more

10-Day Weather Forecast

Advertisements
Track Severe Weather on mobile